Terminal Aerodrome Forecast
Issued by NWS Sioux Falls, SD

Home | Current Version | Previous Version | Text Only | Print | Product List | Glossary Off
Versions: 1 2 3 4 5 6 7 8 9 10 11 12

000
FTUS43 KFSD 271120
TAFHON
TAF
KHON 271120Z 2712/2812 VRB04KT P6SM -SHRA BKN080
     FM271600 28007KT P6SM BKN080
     FM272000 26007KT P6SM SCT120
     FM280800 29007KT P6SM SCT250=

USA.gov is the U.S. government's official web portal to all federal, state and local government web resources and services.